Aeroporto :
LOGIN :

Iscrizione | Disclaimer

   EN    FR    IT 

 










Sommario :    VFR   VFR Marginale   IFR   IFR Intensivo   IFR Molto Intensivo
Visibilità : 
Base nubi : 
>= 8 km
>= 3000ft
5 / 8 km
1000 / 3000 ft
1500m / 5 km
500 / 1000 ft
800 / 1500m
200 / 500 ft
< 800m
< 200 ft
Simboli :   Temporali  Nebbia  Neve Forte  Precipitazioni Forti  Vento > 20 kt
SIGMETs :   Varie  Temporali  Ghiacco  Turbolenza  Onda orograficha  Ceneri Vulcaniche






- Altitudine del aeroporto : 80 ft
- Codice IATA : LPL


EGGP - Liverpool John Lennon

ULTIMO METAR :
  • 200750Z 18010KT 9999 FEW040 13/09 Q1016

METARs OBSOLETI :
  • 200720Z 17011KT 9999 FEW040 13/09 Q1016
  • 200650Z 17010KT 9999 FEW040 12/09 Q1017
  • 200620Z 17010KT 9999 FEW040 12/09 Q1017
  • 200550Z 17008KT CAVOK 11/09 Q1017
  • 200520Z 16007KT 130V190 CAVOK 11/09 Q1017

TAF TAF EGGP
Valido dal 20 a 06 ore il 21 a 06 ore UTC


200454Z 2006/2106 16005KT 9999 FEW045
BECMG 2009/2012 23010KT
TEMPO 2009/2012 6000 -SHRA
TEMPO 2012/2017 4000 SHRA
PROB30
TEMPO 2012/2017 25015G25KT +SHRA
ATIS : +44 151 907 2000 (option 5 or ext 5150)
Met : +44 871 750 5150



MetMap, La meteo Aeronautica in un colpo d'occhio ! - Copyright ORBIFLY Dicembre 2007 - Disclaimer

ORBIFLY MET'MAP TEAM :

Programmazione e sviluppo : Alexandra Zaïnal
Concezione : Baudouin d'Aumeries
Supporto tecnico e logistico : Manuel Goepfert
Aiuto : Marc-Olivier Méhu
Aiuto per la traduzione : Arnaldo La Scala

Contatto : metmap@orbifly.com




FONTI E CREDITI :

   NOAA